createdAt,value
2022-09-03T00:00:08.068Z,13.69
2022-09-03T00:05:16.440Z,13.70
2022-09-03T00:10:22.548Z,13.70
2022-09-03T00:15:25.306Z,13.64
2022-09-03T00:20:31.269Z,13.63
2022-09-03T00:25:39.186Z,13.66
2022-09-03T00:30:43.335Z,13.54
2022-09-03T00:35:48.610Z,13.32
2022-09-03T00:41:03.313Z,13.12
2022-09-03T00:46:13.651Z,13.01
2022-09-03T00:51:25.863Z,12.93
2022-09-03T00:56:34.689Z,12.84
2022-09-03T01:01:45.972Z,12.74
2022-09-03T01:06:58.772Z,12.61
2022-09-03T01:12:06.817Z,12.56
2022-09-03T01:17:17.455Z,12.48
2022-09-03T01:22:48.582Z,12.43
2022-09-03T01:28:02.997Z,12.36
2022-09-03T01:33:14.998Z,12.34
2022-09-03T01:38:25.358Z,12.20
2022-09-03T01:43:45.275Z,12.30
2022-09-03T01:48:53.983Z,12.45
2022-09-03T01:54:21.561Z,12.34
2022-09-03T01:59:29.821Z,12.17
2022-09-03T02:04:31.761Z,12.15
2022-09-03T02:09:32.743Z,12.01
2022-09-03T02:14:36.216Z,11.94
2022-09-03T02:19:38.031Z,11.82
2022-09-03T02:24:38.660Z,11.72
2022-09-03T02:29:40.636Z,11.64
2022-09-03T02:34:41.525Z,11.59
2022-09-03T02:39:42.405Z,11.58
2022-09-03T02:44:49.357Z,11.49
2022-09-03T02:49:50.496Z,11.49
2022-09-03T02:54:51.327Z,11.39
2022-09-03T02:59:53.294Z,11.37
2022-09-03T03:04:55.111Z,11.33
2022-09-03T03:09:55.754Z,11.27
2022-09-03T03:14:57.726Z,11.26
2022-09-03T03:19:58.370Z,11.23
2022-09-03T03:24:58.984Z,11.12
2022-09-03T03:30:00.965Z,11.09
2022-09-03T03:35:01.612Z,11.27
2022-09-03T03:40:02.330Z,11.23
2022-09-03T03:45:05.255Z,11.15
2022-09-03T03:50:07.018Z,11.19
2022-09-03T03:55:08.414Z,11.05
2022-09-03T04:00:11.489Z,11.01
2022-09-03T04:05:19.187Z,10.92
2022-09-03T04:10:23.941Z,10.91
2022-09-03T04:15:25.929Z,10.84
2022-09-03T04:20:26.647Z,10.83
2022-09-03T04:25:27.383Z,10.85
2022-09-03T04:30:29.387Z,10.83
2022-09-03T04:35:31.770Z,10.77
2022-09-03T04:40:32.453Z,10.87
2022-09-03T04:45:34.479Z,10.87
2022-09-03T04:50:35.673Z,10.82
2022-09-03T04:55:37.041Z,10.90
2022-09-03T05:00:39.933Z,10.96
2022-09-03T05:05:40.599Z,10.99
2022-09-03T05:10:41.196Z,10.97
2022-09-03T05:15:45.426Z,11.06
2022-09-03T05:20:46.038Z,11.04
2022-09-03T05:25:56.432Z,11.14
2022-09-03T05:31:02.271Z,11.25
2022-09-03T05:36:04.379Z,11.23
2022-09-03T05:41:07.680Z,11.29
2022-09-03T05:46:12.244Z,11.36
2022-09-03T05:51:16.359Z,11.42
2022-09-03T05:56:19.073Z,11.51
2022-09-03T06:01:22.525Z,11.62
2022-09-03T06:06:25.744Z,11.87
2022-09-03T06:11:28.121Z,11.95
2022-09-03T06:16:32.139Z,12.15
2022-09-03T06:21:33.074Z,12.34
2022-09-03T06:26:33.788Z,12.47
2022-09-03T06:31:38.334Z,12.67
2022-09-03T06:36:39.063Z,12.82
2022-09-03T06:41:40.222Z,12.94
2022-09-03T06:46:43.459Z,13.01
2022-09-03T06:51:44.325Z,13.11
2022-09-03T06:56:44.942Z,13.37
2022-09-03T07:01:48.643Z,13.61
2022-09-03T07:06:49.484Z,13.68
2022-09-03T07:11:50.127Z,13.85
2022-09-03T07:16:52.070Z,13.94
2022-09-03T07:21:52.656Z,14.26
2022-09-03T07:26:53.295Z,14.41
2022-09-03T07:31:55.289Z,14.58
2022-09-03T07:36:56.247Z,14.80
2022-09-03T07:41:58.236Z,14.81
2022-09-03T07:47:00.823Z,14.85
2022-09-03T07:52:03.023Z,15.05
2022-09-03T07:57:03.712Z,15.36
2022-09-03T08:02:06.049Z,15.59
2022-09-03T08:07:06.769Z,15.80
2022-09-03T08:12:07.825Z,15.88
2022-09-03T08:17:09.798Z,16.15
2022-09-03T08:22:10.883Z,16.25
2022-09-03T08:27:11.497Z,16.54
2022-09-03T08:32:14.314Z,16.79
2022-09-03T08:37:14.968Z,17.03
2022-09-03T08:42:29.834Z,17.25
2022-09-03T08:47:38.179Z,17.37
2022-09-03T08:52:49.007Z,17.51
2022-09-03T08:57:51.859Z,17.61
2022-09-03T09:03:06.738Z,17.75
2022-09-03T09:08:20.186Z,17.91
2022-09-03T09:13:27.686Z,18.06
2022-09-03T09:18:46.672Z,18.17
2022-09-03T09:23:49.356Z,18.25
2022-09-03T09:28:57.176Z,18.44
2022-09-03T09:34:05.034Z,18.49
2022-09-03T09:39:10.468Z,18.68
2022-09-03T09:44:20.719Z,18.83
2022-09-03T09:49:32.806Z,18.96
2022-09-03T09:54:33.522Z,19.05
2022-09-03T09:59:37.926Z,19.25
2022-09-03T10:04:40.511Z,19.45
2022-09-03T10:09:41.148Z,19.62
2022-09-03T10:14:47.672Z,19.73
2022-09-03T10:20:19.300Z,19.80
2022-09-03T10:25:22.295Z,20.05
2022-09-03T10:30:23.999Z,20.22
2022-09-03T10:35:30.483Z,20.49
2022-09-03T10:40:38.704Z,20.50
2022-09-03T10:45:45.408Z,20.91
2022-09-03T10:50:53.749Z,21.26
2022-09-03T10:56:02.436Z,21.54
2022-09-03T11:01:09.111Z,21.39
2022-09-03T11:06:14.462Z,21.29
2022-09-03T11:11:21.714Z,21.28
2022-09-03T11:16:27.255Z,21.50
2022-09-03T11:21:32.504Z,21.56
2022-09-03T11:26:35.274Z,21.65
2022-09-03T11:31:48.091Z,21.69
2022-09-03T11:36:50.116Z,21.77
2022-09-03T11:42:02.278Z,21.50
2022-09-03T11:47:02.915Z,21.50
2022-09-03T11:52:08.014Z,21.26
2022-09-03T11:57:13.827Z,21.11
2022-09-03T12:02:27.290Z,20.99
2022-09-03T12:08:01.035Z,21.46
2022-09-03T12:13:28.390Z,21.88
2022-09-03T12:18:32.234Z,21.98
2022-09-03T12:23:36.267Z,22.16
2022-09-03T12:28:38.700Z,22.55
2022-09-03T12:33:45.335Z,22.65
2022-09-03T12:39:10.431Z,22.81
2022-09-03T12:44:11.933Z,22.88
2022-09-03T12:49:31.713Z,23.13
2022-09-03T12:54:34.701Z,23.43
2022-09-03T12:59:39.327Z,23.30
2022-09-03T13:04:41.234Z,22.88
2022-09-03T13:09:43.740Z,22.92
2022-09-03T13:14:47.264Z,22.49
2022-09-03T13:20:16.019Z,22.43
2022-09-03T13:25:28.092Z,22.89
2022-09-03T13:30:38.060Z,23.49
2022-09-03T13:35:45.964Z,23.61
2022-09-03T13:40:52.961Z,23.78
2022-09-03T13:45:58.343Z,23.83
2022-09-03T13:51:12.486Z,24.05
2022-09-03T13:56:28.146Z,23.78
2022-09-03T14:01:54.538Z,23.80
2022-09-03T14:07:03.848Z,23.57
2022-09-03T14:12:14.669Z,23.35
2022-09-03T14:17:20.439Z,23.16
2022-09-03T14:22:25.922Z,22.88
2022-09-03T14:27:30.609Z,22.71
2022-09-03T14:32:41.337Z,22.34
2022-09-03T14:38:22.654Z,22.15
2022-09-03T14:43:42.485Z,22.53
2022-09-03T14:49:04.809Z,22.37
2022-09-03T14:54:21.406Z,22.28
2022-09-03T14:59:39.385Z,22.38
2022-09-03T15:04:52.809Z,22.79
2022-09-03T15:10:03.088Z,22.81
2022-09-03T15:15:14.205Z,22.87
2022-09-03T15:20:23.767Z,23.18
2022-09-03T15:25:40.209Z,23.22
2022-09-03T15:30:51.237Z,23.16
2022-09-03T15:36:07.607Z,23.18
2022-09-03T15:41:14.022Z,23.12
2022-09-03T15:46:38.294Z,22.91
2022-09-03T15:51:50.037Z,22.73
2022-09-03T15:56:56.800Z,22.16
2022-09-03T16:02:04.879Z,21.65
2022-09-03T16:07:16.874Z,21.65
2022-09-03T16:12:28.517Z,21.91
2022-09-03T16:17:36.296Z,21.90
2022-09-03T16:22:44.978Z,21.60
2022-09-03T16:27:57.293Z,22.07
2022-09-03T16:33:10.191Z,22.46
2022-09-03T16:38:28.365Z,22.59
2022-09-03T16:43:42.018Z,21.82
2022-09-03T16:48:54.689Z,21.56
2022-09-03T16:54:18.270Z,21.81
2022-09-03T16:59:40.640Z,23.83
2022-09-03T17:05:10.635Z,24.02
2022-09-03T17:10:22.691Z,24.43
2022-09-03T17:15:33.920Z,23.47
2022-09-03T17:20:58.978Z,22.27
2022-09-03T17:26:07.148Z,21.21
2022-09-03T17:31:16.124Z,20.38
2022-09-03T17:36:24.391Z,19.79
2022-09-03T17:41:37.347Z,19.38
2022-09-03T17:46:47.462Z,19.06
2022-09-03T17:51:53.225Z,18.89
2022-09-03T17:57:01.423Z,18.65
2022-09-03T18:02:08.914Z,18.74
2022-09-03T18:07:19.452Z,18.63
2022-09-03T18:12:30.529Z,18.42
2022-09-03T18:17:36.048Z,18.24
2022-09-03T18:23:03.847Z,18.15
2022-09-03T18:28:26.195Z,18.11
2022-09-03T18:33:45.760Z,17.98
2022-09-03T18:39:05.177Z,17.82
2022-09-03T18:44:33.436Z,17.73
2022-09-03T18:49:59.241Z,17.69
2022-09-03T18:55:29.509Z,17.62
2022-09-03T19:00:53.570Z,17.49
2022-09-03T19:06:24.067Z,17.42
2022-09-03T19:11:52.348Z,17.29
2022-09-03T19:17:22.954Z,17.15
2022-09-03T19:22:47.994Z,17.22
2022-09-03T19:28:21.685Z,17.10
2022-09-03T19:33:48.603Z,17.04
2022-09-03T19:39:23.003Z,16.94
2022-09-03T19:44:58.507Z,16.88
2022-09-03T19:50:31.517Z,16.82
2022-09-03T19:55:53.926Z,16.85
2022-09-03T20:01:13.617Z,16.82
2022-09-03T20:06:33.480Z,16.79
2022-09-03T20:11:34.192Z,16.74
2022-09-03T20:16:45.498Z,16.70
2022-09-03T20:21:51.027Z,16.63
2022-09-03T20:26:58.134Z,16.66
2022-09-03T20:32:09.059Z,16.60
2022-09-03T20:37:24.556Z,16.52
2022-09-03T20:42:40.029Z,16.53
2022-09-03T20:48:10.902Z,16.39
2022-09-03T20:53:25.776Z,16.49
2022-09-03T20:58:38.087Z,16.47
2022-09-03T21:03:49.114Z,16.40
2022-09-03T21:09:02.435Z,16.40
2022-09-03T21:14:14.678Z,16.38
2022-09-03T21:19:23.172Z,16.36
2022-09-03T21:24:31.276Z,16.36
2022-09-03T21:29:38.970Z,16.30
2022-09-03T21:34:51.879Z,16.24
2022-09-03T21:39:56.208Z,16.15
2022-09-03T21:45:01.228Z,15.93
2022-09-03T21:50:13.096Z,15.93
2022-09-03T21:55:23.273Z,15.81
2022-09-03T22:00:32.604Z,15.75
2022-09-03T22:05:48.954Z,15.75
2022-09-03T22:11:04.246Z,15.60
2022-09-03T22:16:13.763Z,15.59
2022-09-03T22:21:23.454Z,15.41
2022-09-03T22:26:45.052Z,15.40
2022-09-03T22:31:58.703Z,15.33
2022-09-03T22:37:03.606Z,15.28
2022-09-03T22:42:20.986Z,15.19
2022-09-03T22:47:33.933Z,15.12
2022-09-03T22:52:42.981Z,15.05
2022-09-03T22:57:55.728Z,14.98
2022-09-03T23:03:03.603Z,14.85
2022-09-03T23:08:12.217Z,14.85
2022-09-03T23:13:19.281Z,14.73
2022-09-03T23:18:26.986Z,14.68
2022-09-03T23:23:32.541Z,14.66
2022-09-03T23:28:36.461Z,14.57
2022-09-03T23:33:37.091Z,14.59
2022-09-03T23:38:54.073Z,14.67
2022-09-03T23:44:12.275Z,14.74
2022-09-03T23:49:42.651Z,14.86
2022-09-03T23:54:48.896Z,14.92
